首页
METAR-TAF:

METAR-TAF

机场 :

霞浦, 日本

纬度: 36-02N, 经度: 140-12E, 海拔: 26米

当前天气观测

该预报发布于3小时和25分钟前的07:50 UTC
风速2节,风向西
温度 12°C
湿度 71%
气压 1008 hPa
能见度10公里或以上
少量云层高于3000英尺
散云层高于18000英尺

METAR: RJAK 220750Z 26002KT 9999 FEW030 SCT180 12/07 Q1008 RMK 1CU030 3AC180 A2978 W/E

时间: 20:15 (11:15 UTC)


TAF: 丢失

超过4000个机场的气象观测和天气预报(METAR&TAF报告)。

可查询的气象台以黄色和红色小点在地图上表示。

将鼠标移到小点上方,可查看气象台名称。

然后点击查看天气观测和预报。

如需切换地图:点击带黑十字的绿色按钮放大地图;点击带横线的绿色按钮缩小地图;或者点击绿色箭头查看邻近地区的地图。


METAR-TAF: